sensor_id;sensor_type;location;lat;lon;timestamp;pressure;altitude;pressure_sealevel;temperature;humidity
33414;BME280;60055;41.884;12.534;2023-09-12T00:00:53;100921.50;;;25.11;55.42
33414;BME280;60055;41.884;12.534;2023-09-12T00:03:20;100920.50;;;24.83;56.26
33414;BME280;60055;41.884;12.534;2023-09-12T00:05:56;100914.22;;;24.73;56.55
33414;BME280;60055;41.884;12.534;2023-09-12T00:08:23;100918.63;;;24.74;56.49
33414;BME280;60055;41.884;12.534;2023-09-12T00:11:05;100915.22;;;24.91;55.95
33414;BME280;60055;41.884;12.534;2023-09-12T00:13:33;100921.84;;;24.39;56.68
33414;BME280;60055;41.884;12.534;2023-09-12T00:15:58;100923.13;;;24.45;55.36
33414;BME280;60055;41.884;12.534;2023-09-12T00:18:24;100917.16;;;24.11;55.41
33414;BME280;60055;41.884;12.534;2023-09-12T00:20:50;100921.78;;;24.20;55.45
33414;BME280;60055;41.884;12.534;2023-09-12T00:23:16;100914.56;;;24.30;54.97
33414;BME280;60055;41.884;12.534;2023-09-12T00:25:41;100914.13;;;24.34;54.28
33414;BME280;60055;41.884;12.534;2023-09-12T00:28:07;100917.97;;;24.32;53.86
33414;BME280;60055;41.884;12.534;2023-09-12T00:30:32;100915.69;;;24.37;53.43
33414;BME280;60055;41.884;12.534;2023-09-12T00:32:57;100922.47;;;24.12;54.34
33414;BME280;60055;41.884;12.534;2023-09-12T00:35:23;100919.72;;;24.03;54.42
33414;BME280;60055;41.884;12.534;2023-09-12T00:37:48;100916.28;;;24.01;54.14
33414;BME280;60055;41.884;12.534;2023-09-12T00:40:14;100915.56;;;23.99;53.46
33414;BME280;60055;41.884;12.534;2023-09-12T00:42:39;100912.28;;;23.95;52.72
33414;BME280;60055;41.884;12.534;2023-09-12T00:45:06;100920.78;;;23.90;52.31
33414;BME280;60055;41.884;12.534;2023-09-12T00:47:32;100917.09;;;23.91;52.30
33414;BME280;60055;41.884;12.534;2023-09-12T00:49:58;100911.13;;;23.88;52.10
33414;BME280;60055;41.884;12.534;2023-09-12T00:52:26;100913.28;;;23.94;52.03
33414;BME280;60055;41.884;12.534;2023-09-12T00:54:53;100910.28;;;23.87;52.08
33414;BME280;60055;41.884;12.534;2023-09-12T00:57:19;100911.75;;;24.01;51.95
33414;BME280;60055;41.884;12.534;2023-09-12T00:59:47;100918.28;;;23.99;51.78
33414;BME280;60055;41.884;12.534;2023-09-12T01:02:13;100915.69;;;23.97;51.72
33414;BME280;60055;41.884;12.534;2023-09-12T01:04:38;100912.31;;;24.05;51.21
33414;BME280;60055;41.884;12.534;2023-09-12T01:07:04;100898.19;;;24.12;50.75
33414;BME280;60055;41.884;12.534;2023-09-12T01:09:31;100904.81;;;24.08;50.28
33414;BME280;60055;41.884;12.534;2023-09-12T01:11:57;100903.44;;;24.14;50.32
33414;BME280;60055;41.884;12.534;2023-09-12T01:14:23;100896.38;;;23.92;50.59
33414;BME280;60055;41.884;12.534;2023-09-12T01:16:49;100907.44;;;23.89;50.32
33414;BME280;60055;41.884;12.534;2023-09-12T01:19:15;100907.97;;;23.83;50.31
33414;BME280;60055;41.884;12.534;2023-09-12T01:29:42;100904.28;;;23.84;50.32
33414;BME280;60055;41.884;12.534;2023-09-12T01:32:08;100908.72;;;23.85;50.58
33414;BME280;60055;41.884;12.534;2023-09-12T01:34:35;100908.28;;;23.89;50.62
33414;BME280;60055;41.884;12.534;2023-09-12T01:37:00;100909.13;;;23.90;50.74
33414;BME280;60055;41.884;12.534;2023-09-12T01:39:26;100904.00;;;23.87;51.17
33414;BME280;60055;41.884;12.534;2023-09-12T01:41:52;100905.13;;;23.75;51.54
33414;BME280;60055;41.884;12.534;2023-09-12T01:44:20;100901.09;;;23.69;51.73
33414;BME280;60055;41.884;12.534;2023-09-12T01:46:50;100901.94;;;23.70;52.08
33414;BME280;60055;41.884;12.534;2023-09-12T01:49:19;100900.28;;;23.48;51.60
33414;BME280;60055;41.884;12.534;2023-09-12T01:51:46;100901.41;;;23.46;51.65
33414;BME280;60055;41.884;12.534;2023-09-12T01:54:12;100896.06;;;23.34;51.79
33414;BME280;60055;41.884;12.534;2023-09-12T01:56:39;100896.41;;;23.20;51.70
33414;BME280;60055;41.884;12.534;2023-09-12T01:59:05;100905.59;;;23.38;51.68
33414;BME280;60055;41.884;12.534;2023-09-12T02:01:31;100907.81;;;23.33;51.62
33414;BME280;60055;41.884;12.534;2023-09-12T02:03:57;100899.88;;;23.32;51.66
33414;BME280;60055;41.884;12.534;2023-09-12T02:06:22;100902.75;;;23.40;51.59
33414;BME280;60055;41.884;12.534;2023-09-12T02:08:48;100897.28;;;23.42;51.56
33414;BME280;60055;41.884;12.534;2023-09-12T02:11:14;100895.59;;;23.29;51.22
33414;BME280;60055;41.884;12.534;2023-09-12T02:13:39;100900.41;;;23.26;51.45
33414;BME280;60055;41.884;12.534;2023-09-12T02:16:05;100900.94;;;23.20;51.73
33414;BME280;60055;41.884;12.534;2023-09-12T02:18:30;100900.59;;;23.13;52.37
33414;BME280;60055;41.884;12.534;2023-09-12T02:20:58;100898.19;;;23.10;51.94
33414;BME280;60055;41.884;12.534;2023-09-12T02:23:23;100900.31;;;22.96;52.80
33414;BME280;60055;41.884;12.534;2023-09-12T02:25:49;100902.91;;;23.18;52.02
33414;BME280;60055;41.884;12.534;2023-09-12T02:28:14;100904.75;;;23.17;51.95
33414;BME280;60055;41.884;12.534;2023-09-12T02:30:40;100908.72;;;23.02;53.07
33414;BME280;60055;41.884;12.534;2023-09-12T02:33:06;100910.94;;;23.08;53.22
33414;BME280;60055;41.884;12.534;2023-09-12T02:35:31;100919.25;;;22.84;53.32
33414;BME280;60055;41.884;12.534;2023-09-12T02:37:57;100910.22;;;22.95;52.63
33414;BME280;60055;41.884;12.534;2023-09-12T02:40:22;100917.38;;;22.85;51.80
33414;BME280;60055;41.884;12.534;2023-09-12T02:42:48;100917.59;;;22.93;51.54
33414;BME280;60055;41.884;12.534;2023-09-12T02:45:13;100908.13;;;22.99;51.90
33414;BME280;60055;41.884;12.534;2023-09-12T02:47:38;100913.59;;;22.87;52.29
33414;BME280;60055;41.884;12.534;2023-09-12T02:50:04;100915.84;;;23.03;52.79
33414;BME280;60055;41.884;12.534;2023-09-12T02:52:30;100919.00;;;23.08;53.20
33414;BME280;60055;41.884;12.534;2023-09-12T02:54:55;100922.72;;;22.96;53.48
33414;BME280;60055;41.884;12.534;2023-09-12T02:57:20;100916.63;;;22.94;53.92
33414;BME280;60055;41.884;12.534;2023-09-12T02:59:47;100912.34;;;22.91;53.58
33414;BME280;60055;41.884;12.534;2023-09-12T03:02:12;100919.59;;;22.91;53.44
33414;BME280;60055;41.884;12.534;2023-09-12T03:04:37;100914.66;;;22.96;53.71
33414;BME280;60055;41.884;12.534;2023-09-12T03:07:03;100916.22;;;22.99;53.79
33414;BME280;60055;41.884;12.534;2023-09-12T03:09:29;100916.81;;;23.02;54.19
33414;BME280;60055;41.884;12.534;2023-09-12T03:11:54;100914.53;;;22.98;54.56
33414;BME280;60055;41.884;12.534;2023-09-12T03:14:19;100921.78;;;22.86;55.69
33414;BME280;60055;41.884;12.534;2023-09-12T03:16:45;100919.59;;;22.37;57.73
33414;BME280;60055;41.884;12.534;2023-09-12T03:19:11;100920.75;;;22.55;56.78
33414;BME280;60055;41.884;12.534;2023-09-12T03:21:36;100914.16;;;22.05;58.27
33414;BME280;60055;41.884;12.534;2023-09-12T03:24:01;100918.31;;;22.20;57.73
33414;BME280;60055;41.884;12.534;2023-09-12T03:26:27;100920.50;;;22.15;58.20
33414;BME280;60055;41.884;12.534;2023-09-12T03:28:52;100917.78;;;22.26;57.85
33414;BME280;60055;41.884;12.534;2023-09-12T03:31:18;100927.53;;;22.38;57.53
33414;BME280;60055;41.884;12.534;2023-09-12T03:33:44;100926.78;;;22.48;57.44
33414;BME280;60055;41.884;12.534;2023-09-12T03:36:15;100922.84;;;22.52;57.03
33414;BME280;60055;41.884;12.534;2023-09-12T03:38:41;100918.94;;;22.56;57.37
33414;BME280;60055;41.884;12.534;2023-09-12T03:41:06;100919.28;;;22.62;56.67
33414;BME280;60055;41.884;12.534;2023-09-12T03:43:33;100918.31;;;22.20;58.36
33414;BME280;60055;41.884;12.534;2023-09-12T03:45:58;100926.38;;;22.20;58.12
33414;BME280;60055;41.884;12.534;2023-09-12T03:48:24;100924.41;;;22.22;57.69
33414;BME280;60055;41.884;12.534;2023-09-12T03:50:49;100919.84;;;22.34;57.58
33414;BME280;60055;41.884;12.534;2023-09-12T03:53:15;100920.59;;;22.36;57.54
33414;BME280;60055;41.884;12.534;2023-09-12T03:55:41;100918.84;;;22.35;57.78
33414;BME280;60055;41.884;12.534;2023-09-12T03:58:07;100914.09;;;22.38;57.27
33414;BME280;60055;41.884;12.534;2023-09-12T04:00:32;100928.28;;;22.40;57.03
33414;BME280;60055;41.884;12.534;2023-09-12T04:02:58;100923.88;;;22.28;57.66
33414;BME280;60055;41.884;12.534;2023-09-12T04:05:25;100926.22;;;22.11;57.86
33414;BME280;60055;41.884;12.534;2023-09-12T04:07:50;100930.53;;;22.02;57.73
33414;BME280;60055;41.884;12.534;2023-09-12T04:10:15;100930.16;;;22.07;58.15
33414;BME280;60055;41.884;12.534;2023-09-12T04:12:43;100942.72;;;22.17;57.03
33414;BME280;60055;41.884;12.534;2023-09-12T04:15:09;100939.81;;;21.98;57.97
33414;BME280;60055;41.884;12.534;2023-09-12T04:17:34;100937.13;;;22.09;57.09
33414;BME280;60055;41.884;12.534;2023-09-12T04:19:59;100930.75;;;22.21;56.71
33414;BME280;60055;41.884;12.534;2023-09-12T04:22:25;100939.47;;;22.03;56.95
33414;BME280;60055;41.884;12.534;2023-09-12T04:24:50;100944.47;;;21.96;56.98
33414;BME280;60055;41.884;12.534;2023-09-12T04:27:16;100942.41;;;22.00;56.79
33414;BME280;60055;41.884;12.534;2023-09-12T04:29:41;100935.03;;;21.90;56.95
33414;BME280;60055;41.884;12.534;2023-09-12T04:32:07;100937.03;;;22.00;56.30
33414;BME280;60055;41.884;12.534;2023-09-12T04:34:32;100938.34;;;21.94;56.82
33414;BME280;60055;41.884;12.534;2023-09-12T04:36:58;100942.34;;;21.77;56.65
33414;BME280;60055;41.884;12.534;2023-09-12T04:39:23;100948.50;;;21.90;56.47
33414;BME280;60055;41.884;12.534;2023-09-12T04:41:49;100943.22;;;21.89;56.69
33414;BME280;60055;41.884;12.534;2023-09-12T04:44:14;100951.50;;;21.75;56.98
33414;BME280;60055;41.884;12.534;2023-09-12T04:46:40;100947.63;;;21.79;56.48
33414;BME280;60055;41.884;12.534;2023-09-12T04:49:05;100951.25;;;21.67;56.93
33414;BME280;60055;41.884;12.534;2023-09-12T04:51:31;100954.78;;;21.67;56.51
33414;BME280;60055;41.884;12.534;2023-09-12T04:53:56;100953.81;;;21.68;56.25
33414;BME280;60055;41.884;12.534;2023-09-12T04:56:22;100957.47;;;21.67;55.93
33414;BME280;60055;41.884;12.534;2023-09-12T04:58:49;100962.25;;;21.75;56.22
33414;BME280;60055;41.884;12.534;2023-09-12T05:01:15;100965.41;;;21.58;56.57
33414;BME280;60055;41.884;12.534;2023-09-12T05:03:41;100960.38;;;21.53;57.07
33414;BME280;60055;41.884;12.534;2023-09-12T05:06:07;100955.28;;;21.61;56.15
33414;BME280;60055;41.884;12.534;2023-09-12T05:08:32;100961.22;;;22.00;55.20
33414;BME280;60055;41.884;12.534;2023-09-12T05:10:57;100965.22;;;22.38;53.64
33414;BME280;60055;41.884;12.534;2023-09-12T05:13:23;100966.63;;;22.76;52.50
33414;BME280;60055;41.884;12.534;2023-09-12T05:15:48;100969.09;;;23.31;50.89
33414;BME280;60055;41.884;12.534;2023-09-12T05:18:14;100968.94;;;23.65;49.81
33414;BME280;60055;41.884;12.534;2023-09-12T05:20:39;100972.53;;;24.05;48.99
33414;BME280;60055;41.884;12.534;2023-09-12T05:23:05;100966.47;;;23.82;49.25
33414;BME280;60055;41.884;12.534;2023-09-12T05:25:31;100968.78;;;23.66;49.45
33414;BME280;60055;41.884;12.534;2023-09-12T05:27:56;100974.25;;;23.76;49.28
33414;BME280;60055;41.884;12.534;2023-09-12T05:30:22;100969.63;;;23.67;50.00
33414;BME280;60055;41.884;12.534;2023-09-12T05:32:48;100974.25;;;23.76;49.46
33414;BME280;60055;41.884;12.534;2023-09-12T05:35:13;100972.75;;;23.62;49.78
33414;BME280;60055;41.884;12.534;2023-09-12T05:37:38;100976.28;;;23.63;49.87
33414;BME280;60055;41.884;12.534;2023-09-12T05:40:04;100976.75;;;23.47;50.29
33414;BME280;60055;41.884;12.534;2023-09-12T05:42:31;100986.03;;;23.22;50.38
33414;BME280;60055;41.884;12.534;2023-09-12T05:44:56;100978.16;;;22.99;51.06
33414;BME280;60055;41.884;12.534;2023-09-12T05:47:22;100968.84;;;23.03;50.94
33414;BME280;60055;41.884;12.534;2023-09-12T05:49:47;100977.28;;;23.09;50.87
33414;BME280;60055;41.884;12.534;2023-09-12T05:52:13;100979.72;;;23.33;49.98
33414;BME280;60055;41.884;12.534;2023-09-12T05:54:39;100971.41;;;23.57;50.08
33414;BME280;60055;41.884;12.534;2023-09-12T05:57:06;100977.84;;;23.86;49.15
33414;BME280;60055;41.884;12.534;2023-09-12T05:59:31;100970.13;;;23.40;49.57
33414;BME280;60055;41.884;12.534;2023-09-12T06:01:57;100980.22;;;24.10;48.38
33414;BME280;60055;41.884;12.534;2023-09-12T06:04:23;100970.84;;;24.44;47.33
33414;BME280;60055;41.884;12.534;2023-09-12T06:06:48;100975.38;;;24.83;46.06
33414;BME280;60055;41.884;12.534;2023-09-12T06:09:14;100973.25;;;25.06;45.19
33414;BME280;60055;41.884;12.534;2023-09-12T06:11:39;100980.91;;;24.91;45.40
33414;BME280;60055;41.884;12.534;2023-09-12T06:14:04;100973.97;;;25.18;44.80
33414;BME280;60055;41.884;12.534;2023-09-12T06:16:30;100979.38;;;25.37;44.25
33414;BME280;60055;41.884;12.534;2023-09-12T06:18:55;100978.19;;;25.49;44.06
33414;BME280;60055;41.884;12.534;2023-09-12T06:21:21;100974.53;;;25.31;44.17
33414;BME280;60055;41.884;12.534;2023-09-12T06:23:48;100973.59;;;25.88;42.63
33414;BME280;60055;41.884;12.534;2023-09-12T06:26:13;100979.97;;;25.97;43.42
33414;BME280;60055;41.884;12.534;2023-09-12T06:28:39;100986.41;;;25.96;42.23
33414;BME280;60055;41.884;12.534;2023-09-12T06:31:08;100984.69;;;26.31;42.06
33414;BME280;60055;41.884;12.534;2023-09-12T06:33:34;100992.41;;;26.26;41.03
33414;BME280;60055;41.884;12.534;2023-09-12T06:35:59;100990.13;;;25.85;41.62
33414;BME280;60055;41.884;12.534;2023-09-12T06:38:25;100995.03;;;26.18;40.86
33414;BME280;60055;41.884;12.534;2023-09-12T06:40:50;100998.13;;;26.51;40.81
33414;BME280;60055;41.884;12.534;2023-09-12T06:43:16;101004.59;;;26.40;41.28
33414;BME280;60055;41.884;12.534;2023-09-12T06:45:42;101013.09;;;26.55;40.78
33414;BME280;60055;41.884;12.534;2023-09-12T06:48:07;101003.50;;;26.60;40.86
33414;BME280;60055;41.884;12.534;2023-09-12T06:50:33;101011.69;;;26.51;40.39
33414;BME280;60055;41.884;12.534;2023-09-12T06:52:58;101015.19;;;26.61;40.60
33414;BME280;60055;41.884;12.534;2023-09-12T06:55:24;101005.25;;;26.52;40.69
33414;BME280;60055;41.884;12.534;2023-09-12T06:57:49;101006.44;;;26.67;40.54
33414;BME280;60055;41.884;12.534;2023-09-12T07:00:15;101016.69;;;26.73;40.52
33414;BME280;60055;41.884;12.534;2023-09-12T07:02:42;101018.22;;;26.85;40.50
33414;BME280;60055;41.884;12.534;2023-09-12T07:05:07;101028.13;;;26.94;40.13
33414;BME280;60055;41.884;12.534;2023-09-12T07:07:33;101026.44;;;27.11;40.14
33414;BME280;60055;41.884;12.534;2023-09-12T07:09:58;101026.50;;;27.01;40.10
33414;BME280;60055;41.884;12.534;2023-09-12T07:12:25;101023.19;;;27.25;39.30
33414;BME280;60055;41.884;12.534;2023-09-12T07:14:51;101027.56;;;27.53;39.72
33414;BME280;60055;41.884;12.534;2023-09-12T07:17:17;101035.84;;;27.16;39.77
33414;BME280;60055;41.884;12.534;2023-09-12T07:19:43;101033.25;;;27.32;39.12
33414;BME280;60055;41.884;12.534;2023-09-12T07:22:08;101036.34;;;27.73;38.36
33414;BME280;60055;41.884;12.534;2023-09-12T07:24:34;101041.78;;;27.73;38.53
33414;BME280;60055;41.884;12.534;2023-09-12T07:26:59;101034.34;;;28.01;38.16
33414;BME280;60055;41.884;12.534;2023-09-12T07:29:25;101047.22;;;27.99;37.90
33414;BME280;60055;41.884;12.534;2023-09-12T07:31:54;101048.63;;;28.28;37.21
33414;BME280;60055;41.884;12.534;2023-09-12T07:34:20;101047.72;;;28.20;36.88
33414;BME280;60055;41.884;12.534;2023-09-12T07:36:46;101054.16;;;28.53;36.32
33414;BME280;60055;41.884;12.534;2023-09-12T07:39:11;101049.16;;;28.06;37.15
33414;BME280;60055;41.884;12.534;2023-09-12T07:41:37;101054.09;;;28.36;37.06
33414;BME280;60055;41.884;12.534;2023-09-12T07:44:02;101049.63;;;28.95;35.71
33414;BME280;60055;41.884;12.534;2023-09-12T07:46:30;101054.38;;;28.93;35.81
33414;BME280;60055;41.884;12.534;2023-09-12T07:48:56;101059.84;;;29.09;35.01
33414;BME280;60055;41.884;12.534;2023-09-12T07:51:23;101055.09;;;29.11;35.50
33414;BME280;60055;41.884;12.534;2023-09-12T07:53:49;101066.72;;;29.37;34.88
33414;BME280;60055;41.884;12.534;2023-09-12T07:56:14;101057.72;;;29.69;34.31
33414;BME280;60055;41.884;12.534;2023-09-12T07:58:43;101063.50;;;29.58;34.61
33414;BME280;60055;41.884;12.534;2023-09-12T08:01:08;101066.75;;;29.70;34.67
33414;BME280;60055;41.884;12.534;2023-09-12T08:03:35;101075.75;;;29.62;34.62
33414;BME280;60055;41.884;12.534;2023-09-12T08:06:01;101072.22;;;29.86;33.87
33414;BME280;60055;41.884;12.534;2023-09-12T08:08:28;101075.22;;;29.51;35.05
33414;BME280;60055;41.884;12.534;2023-09-12T08:10:53;101074.22;;;29.52;35.32
33414;BME280;60055;41.884;12.534;2023-09-12T08:13:19;101079.06;;;28.66;36.53
33414;BME280;60055;41.884;12.534;2023-09-12T08:15:44;101077.81;;;28.86;36.06
33414;BME280;60055;41.884;12.534;2023-09-12T08:18:10;101082.28;;;29.03;36.00
33414;BME280;60055;41.884;12.534;2023-09-12T08:20:35;101086.34;;;28.99;35.78
33414;BME280;60055;41.884;12.534;2023-09-12T08:23:01;101085.28;;;29.42;35.44
33414;BME280;60055;41.884;12.534;2023-09-12T08:25:27;101089.91;;;29.74;34.21
33414;BME280;60055;41.884;12.534;2023-09-12T08:27:52;101070.31;;;29.95;33.96
33414;BME280;60055;41.884;12.534;2023-09-12T08:30:18;101083.47;;;29.91;34.54
33414;BME280;60055;41.884;12.534;2023-09-12T08:32:43;101076.72;;;30.42;33.22
33414;BME280;60055;41.884;12.534;2023-09-12T08:35:12;101086.81;;;30.42;33.18
33414;BME280;60055;41.884;12.534;2023-09-12T08:37:39;101082.69;;;30.29;33.51
33414;BME280;60055;41.884;12.534;2023-09-12T08:40:06;101091.38;;;30.33;33.84
33414;BME280;60055;41.884;12.534;2023-09-12T08:42:39;101090.84;;;30.46;33.45
33414;BME280;60055;41.884;12.534;2023-09-12T08:45:16;101096.03;;;30.00;33.97
33414;BME280;60055;41.884;12.534;2023-09-12T08:47:45;101091.56;;;30.15;34.28
33414;BME280;60055;41.884;12.534;2023-09-12T08:50:13;101089.97;;;30.61;32.85
33414;BME280;60055;41.884;12.534;2023-09-12T08:52:40;101096.81;;;30.96;31.66
33414;BME280;60055;41.884;12.534;2023-09-12T08:55:07;101100.78;;;30.85;31.15
33414;BME280;60055;41.884;12.534;2023-09-12T08:57:36;101087.47;;;30.27;32.90
33414;BME280;60055;41.884;12.534;2023-09-12T09:00:05;101096.88;;;30.80;32.40
33414;BME280;60055;41.884;12.534;2023-09-12T09:02:50;101101.97;;;30.83;31.90
33414;BME280;60055;41.884;12.534;2023-09-12T09:05:16;101099.06;;;30.84;31.41
33414;BME280;60055;41.884;12.534;2023-09-12T09:07:43;101092.25;;;30.88;31.02
33414;BME280;60055;41.884;12.534;2023-09-12T09:10:15;101093.78;;;30.83;30.78
33414;BME280;60055;41.884;12.534;2023-09-12T09:12:43;101089.13;;;30.61;31.60
33414;BME280;60055;41.884;12.534;2023-09-12T09:15:22;101088.13;;;30.54;31.66
33414;BME280;60055;41.884;12.534;2023-09-12T09:17:49;101093.63;;;30.05;32.20
33414;BME280;60055;41.884;12.534;2023-09-12T09:20:25;101092.66;;;29.90;32.51
33414;BME280;60055;41.884;12.534;2023-09-12T09:23:00;101092.28;;;30.17;32.20
33414;BME280;60055;41.884;12.534;2023-09-12T09:25:27;101083.03;;;30.34;31.71
33414;BME280;60055;41.884;12.534;2023-09-12T09:27:53;101090.88;;;30.37;31.19
33414;BME280;60055;41.884;12.534;2023-09-12T09:30:38;101093.81;;;30.04;31.28
33414;BME280;60055;41.884;12.534;2023-09-12T09:33:04;101093.81;;;30.04;31.51
33414;BME280;60055;41.884;12.534;2023-09-12T09:35:29;101095.28;;;30.38;30.55
33414;BME280;60055;41.884;12.534;2023-09-12T09:37:56;101087.28;;;30.37;30.66
33414;BME280;60055;41.884;12.534;2023-09-12T09:40:22;101088.28;;;30.52;29.93
33414;BME280;60055;41.884;12.534;2023-09-12T09:42:53;101095.28;;;30.47;30.46
33414;BME280;60055;41.884;12.534;2023-09-12T09:45:19;101091.88;;;30.28;30.05
33414;BME280;60055;41.884;12.534;2023-09-12T09:47:44;101089.06;;;29.89;29.56
33414;BME280;60055;41.884;12.534;2023-09-12T09:50:14;101088.50;;;30.34;29.39
33414;BME280;60055;41.884;12.534;2023-09-12T09:52:39;101089.09;;;30.69;28.83
33414;BME280;60055;41.884;12.534;2023-09-12T09:55:06;101084.13;;;30.72;28.80
33414;BME280;60055;41.884;12.534;2023-09-12T09:57:37;101084.00;;;31.05;28.18
33414;BME280;60055;41.884;12.534;2023-09-12T10:00:03;101083.00;;;31.06;29.08
33414;BME280;60055;41.884;12.534;2023-09-12T10:02:35;101082.28;;;31.04;29.01
33414;BME280;60055;41.884;12.534;2023-09-12T10:05:04;101085.47;;;31.15;28.76
33414;BME280;60055;41.884;12.534;2023-09-12T10:07:34;101081.66;;;31.24;27.84
33414;BME280;60055;41.884;12.534;2023-09-12T10:10:03;101076.22;;;31.24;28.08
33414;BME280;60055;41.884;12.534;2023-09-12T10:12:31;101075.00;;;30.96;28.11
33414;BME280;60055;41.884;12.534;2023-09-12T10:15:00;101076.72;;;30.50;28.56
33414;BME280;60055;41.884;12.534;2023-09-12T10:17:30;101072.47;;;30.48;29.16
33414;BME280;60055;41.884;12.534;2023-09-12T10:19:58;101076.47;;;30.68;28.78
33414;BME280;60055;41.884;12.534;2023-09-12T10:22:35;101063.72;;;30.60;28.96
33414;BME280;60055;41.884;12.534;2023-09-12T10:25:03;101065.66;;;30.52;28.73
33414;BME280;60055;41.884;12.534;2023-09-12T10:27:29;101061.25;;;30.26;29.54
33414;BME280;60055;41.884;12.534;2023-09-12T10:29:55;101061.16;;;29.87;30.44
33414;BME280;60055;41.884;12.534;2023-09-12T10:32:23;101066.09;;;29.84;30.68
33414;BME280;60055;41.884;12.534;2023-09-12T10:34:52;101059.94;;;29.74;30.29
33414;BME280;60055;41.884;12.534;2023-09-12T10:37:19;101058.25;;;29.97;30.37
33414;BME280;60055;41.884;12.534;2023-09-12T10:39:48;101060.28;;;30.03;30.32
33414;BME280;60055;41.884;12.534;2023-09-12T10:42:16;101062.63;;;30.22;29.89
33414;BME280;60055;41.884;12.534;2023-09-12T10:44:44;101058.00;;;30.31;30.88
33414;BME280;60055;41.884;12.534;2023-09-12T10:47:11;101065.31;;;30.47;30.37
33414;BME280;60055;41.884;12.534;2023-09-12T10:49:37;101069.19;;;30.60;30.29
33414;BME280;60055;41.884;12.534;2023-09-12T10:52:03;101061.66;;;30.62;29.84
33414;BME280;60055;41.884;12.534;2023-09-12T10:54:39;101066.16;;;30.39;30.39
33414;BME280;60055;41.884;12.534;2023-09-12T10:57:09;101054.03;;;30.58;30.30
33414;BME280;60055;41.884;12.534;2023-09-12T11:00:18;101054.88;;;30.58;30.07
33414;BME280;60055;41.884;12.534;2023-09-12T11:02:42;101052.59;;;30.70;29.88
33414;BME280;60055;41.884;12.534;2023-09-12T11:07:56;101054.38;;;30.55;29.91
33414;BME280;60055;41.884;12.534;2023-09-12T11:10:23;101040.91;;;30.53;30.43
33414;BME280;60055;41.884;12.534;2023-09-12T11:12:54;101042.03;;;30.75;29.49
33414;BME280;60055;41.884;12.534;2023-09-12T11:15:23;101036.59;;;30.67;29.28
33414;BME280;60055;41.884;12.534;2023-09-12T11:20:25;101034.63;;;30.83;29.28
33414;BME280;60055;41.884;12.534;2023-09-12T11:22:50;101029.63;;;30.64;29.55
33414;BME280;60055;41.884;12.534;2023-09-12T11:25:20;101037.56;;;30.82;29.30
33414;BME280;60055;41.884;12.534;2023-09-12T11:30:19;101030.66;;;31.02;29.02
33414;BME280;60055;41.884;12.534;2023-09-12T11:32:49;101030.63;;;30.71;29.07
33414;BME280;60055;41.884;12.534;2023-09-12T11:35:16;101026.38;;;30.69;29.20
33414;BME280;60055;41.884;12.534;2023-09-12T11:37:53;101022.03;;;30.52;28.98
33414;BME280;60055;41.884;12.534;2023-09-12T11:40:24;101017.53;;;30.67;29.25
33414;BME280;60055;41.884;12.534;2023-09-12T11:42:50;101011.69;;;30.78;29.05
33414;BME280;60055;41.884;12.534;2023-09-12T11:45:20;101001.69;;;31.01;28.90
33414;BME280;60055;41.884;12.534;2023-09-12T11:47:47;101008.41;;;31.13;28.50
33414;BME280;60055;41.884;12.534;2023-09-12T11:50:31;101003.25;;;31.18;27.55
33414;BME280;60055;41.884;12.534;2023-09-12T11:55:26;101004.63;;;30.83;28.04
33414;BME280;60055;41.884;12.534;2023-09-12T11:57:52;101002.66;;;31.08;27.33
33414;BME280;60055;41.884;12.534;2023-09-12T12:00:18;100989.19;;;31.29;27.91
33414;BME280;60055;41.884;12.534;2023-09-12T12:02:45;100987.34;;;31.45;27.33
33414;BME280;60055;41.884;12.534;2023-09-12T12:05:11;100993.53;;;31.61;26.78
33414;BME280;60055;41.884;12.534;2023-09-12T12:07:37;100994.31;;;31.70;26.74
33414;BME280;60055;41.884;12.534;2023-09-12T12:10:03;100991.53;;;31.10;27.53
33414;BME280;60055;41.884;12.534;2023-09-12T12:12:29;100981.53;;;31.25;26.92
33414;BME280;60055;41.884;12.534;2023-09-12T12:14:54;100989.91;;;31.46;26.95
33414;BME280;60055;41.884;12.534;2023-09-12T12:17:20;100977.22;;;31.30;26.99
33414;BME280;60055;41.884;12.534;2023-09-12T12:19:46;100974.91;;;31.42;26.25
33414;BME280;60055;41.884;12.534;2023-09-12T12:22:12;100981.34;;;31.49;26.41
33414;BME280;60055;41.884;12.534;2023-09-12T12:24:43;100980.69;;;31.24;26.11
33414;BME280;60055;41.884;12.534;2023-09-12T12:27:09;100987.91;;;31.17;26.39
33414;BME280;60055;41.884;12.534;2023-09-12T12:29:37;100972.56;;;31.39;26.12
33414;BME280;60055;41.884;12.534;2023-09-12T12:32:04;100970.72;;;31.54;25.86
33414;BME280;60055;41.884;12.534;2023-09-12T12:34:30;100970.50;;;31.41;25.67
33414;BME280;60055;41.884;12.534;2023-09-12T12:36:56;100972.94;;;31.36;25.62
33414;BME280;60055;41.884;12.534;2023-09-12T12:39:22;100977.53;;;31.58;25.30
33414;BME280;60055;41.884;12.534;2023-09-12T12:41:48;100981.88;;;31.67;25.57
33414;BME280;60055;41.884;12.534;2023-09-12T12:44:13;100971.28;;;31.87;25.08
33414;BME280;60055;41.884;12.534;2023-09-12T12:46:51;100969.00;;;31.76;24.67
33414;BME280;60055;41.884;12.534;2023-09-12T12:49:20;100968.44;;;31.20;25.42
33414;BME280;60055;41.884;12.534;2023-09-12T12:51:47;100963.94;;;31.27;25.39
33414;BME280;60055;41.884;12.534;2023-09-12T12:54:14;100965.81;;;31.50;25.66
33414;BME280;60055;41.884;12.534;2023-09-12T12:56:40;100970.94;;;31.53;26.15